createdAt,value
2022-11-01T00:01:06.155Z,91.30
2022-11-01T00:03:32.775Z,91.28
2022-11-01T00:05:59.397Z,91.12
2022-11-01T00:08:25.809Z,91.38
2022-11-01T00:10:52.194Z,91.24
2022-11-01T00:13:18.601Z,91.36
2022-11-01T00:15:45.306Z,91.65
2022-11-01T00:18:11.856Z,91.40
2022-11-01T00:20:38.188Z,91.20
2022-11-01T00:23:04.923Z,91.39
2022-11-01T00:25:31.598Z,91.50
2022-11-01T00:27:58.011Z,91.64
2022-11-01T00:30:24.469Z,91.50
2022-11-01T00:32:50.886Z,91.89
2022-11-01T00:35:17.279Z,91.94
2022-11-01T00:37:43.797Z,91.84
2022-11-01T00:40:10.775Z,92.02
2022-11-01T00:42:37.185Z,91.65
2022-11-01T00:45:05.062Z,91.88
2022-11-01T00:47:31.433Z,91.96
2022-11-01T00:49:57.912Z,92.02
2022-11-01T00:52:24.310Z,92.08
2022-11-01T00:54:50.739Z,92.19
2022-11-01T00:57:17.225Z,92.16
2022-11-01T00:59:43.721Z,92.04
2022-11-01T01:02:10.291Z,92.09
2022-11-01T01:04:42.306Z,91.91
2022-11-01T01:07:12.249Z,92.43
2022-11-01T01:09:38.716Z,91.89
2022-11-01T01:12:06.007Z,91.85
2022-11-01T01:14:32.768Z,91.91
2022-11-01T01:16:59.262Z,92.03
2022-11-01T01:19:25.730Z,92.04
2022-11-01T01:21:52.130Z,92.50
2022-11-01T01:24:18.507Z,92.17
2022-11-01T01:26:44.877Z,92.25
2022-11-01T01:29:14.088Z,92.09
2022-11-01T01:31:42.247Z,92.07
2022-11-01T01:34:08.866Z,92.44
2022-11-01T01:36:35.271Z,91.94
2022-11-01T01:39:01.636Z,92.10
2022-11-01T01:41:46.628Z,92.29
2022-11-01T01:44:50.712Z,93.42
2022-11-01T01:47:22.993Z,92.85
2022-11-01T01:52:31.630Z,92.20
2022-11-01T01:55:01.536Z,92.10
2022-11-01T01:57:28.314Z,92.07
2022-11-01T01:59:54.745Z,92.06
2022-11-01T02:02:21.779Z,92.06
2022-11-01T02:04:54.048Z,92.44
2022-11-01T02:07:20.423Z,92.29
2022-11-01T02:09:47.610Z,92.20
2022-11-01T02:12:14.774Z,92.29
2022-11-01T02:14:45.447Z,92.73
2022-11-01T02:17:43.290Z,93.87
2022-11-01T02:20:34.349Z,93.12
2022-11-01T02:23:12.560Z,92.38
2022-11-01T02:26:18.069Z,93.39
2022-11-01T02:29:07.829Z,93.18
2022-11-01T02:31:52.591Z,93.58
2022-11-01T02:34:23.236Z,93.05
2022-11-01T02:37:02.399Z,93.01
2022-11-01T02:39:35.773Z,93.25
2022-11-01T02:42:07.826Z,92.78
2022-11-01T02:44:39.943Z,93.03
2022-11-01T02:47:07.486Z,92.35
2022-11-01T02:49:42.462Z,93.35
2022-11-01T02:52:13.392Z,92.45
2022-11-01T02:54:43.611Z,92.13
2022-11-01T02:57:21.922Z,92.46
2022-11-01T02:59:49.008Z,91.83
2022-11-01T03:02:39.452Z,92.93
2022-11-01T03:05:10.534Z,92.55
2022-11-01T03:07:38.605Z,92.61
2022-11-01T03:10:05.522Z,92.61
2022-11-01T03:12:40.742Z,92.94
2022-11-01T03:15:21.085Z,93.53
2022-11-01T03:17:53.505Z,93.15
2022-11-01T03:20:19.862Z,92.50
2022-11-01T03:22:48.609Z,92.68
2022-11-01T03:25:39.608Z,93.80
2022-11-01T03:28:12.366Z,92.85
2022-11-01T03:30:44.313Z,92.56
2022-11-01T03:33:13.737Z,92.45
2022-11-01T03:35:44.860Z,92.55
2022-11-01T03:38:15.749Z,92.51
2022-11-01T03:40:47.941Z,92.22
2022-11-01T03:43:17.094Z,91.98
2022-11-01T03:45:43.894Z,91.95
2022-11-01T03:48:12.595Z,91.73
2022-11-01T03:50:40.269Z,91.82
2022-11-01T03:53:06.617Z,91.58
2022-11-01T03:55:32.996Z,91.68
2022-11-01T03:58:00.300Z,91.44
2022-11-01T04:00:29.917Z,91.90
2022-11-01T04:02:57.890Z,91.82
2022-11-01T04:05:26.884Z,91.73
2022-11-01T04:07:53.450Z,91.37
2022-11-01T04:10:22.127Z,91.37
2022-11-01T04:12:50.233Z,91.46
2022-11-01T04:15:36.746Z,91.37
2022-11-01T04:18:29.700Z,91.83
2022-11-01T04:20:59.090Z,91.18
2022-11-01T04:23:31.328Z,91.42
2022-11-01T04:25:57.838Z,91.55
2022-11-01T04:28:24.344Z,91.89
2022-11-01T04:30:50.769Z,92.17
2022-11-01T04:33:17.332Z,92.28
2022-11-01T04:35:43.906Z,92.00
2022-11-01T04:38:14.023Z,91.72
2022-11-01T04:40:41.665Z,92.05
2022-11-01T04:43:08.348Z,92.48
2022-11-01T04:45:34.802Z,92.77
2022-11-01T04:48:03.857Z,92.86
2022-11-01T04:50:30.801Z,92.87
2022-11-01T04:52:59.536Z,93.02
2022-11-01T04:55:27.783Z,92.61
2022-11-01T04:57:54.592Z,92.59
2022-11-01T05:00:22.928Z,92.67
2022-11-01T05:02:49.923Z,92.75
2022-11-01T05:05:16.937Z,92.81
2022-11-01T05:07:43.338Z,93.01
2022-11-01T05:10:11.700Z,93.03
2022-11-01T05:12:38.065Z,93.24
2022-11-01T05:15:05.326Z,93.52
2022-11-01T05:17:31.689Z,93.35
2022-11-01T05:19:58.107Z,93.54
2022-11-01T05:22:24.464Z,93.49
2022-11-01T05:24:50.866Z,93.29
2022-11-01T05:27:17.205Z,93.52
2022-11-01T05:29:43.561Z,93.28
2022-11-01T05:32:09.905Z,93.19
2022-11-01T05:34:36.362Z,92.91
2022-11-01T05:37:02.742Z,92.79
2022-11-01T05:39:29.160Z,92.61
2022-11-01T05:42:00.072Z,92.59
2022-11-01T05:44:29.575Z,92.41
2022-11-01T05:46:55.938Z,92.24
2022-11-01T05:49:25.498Z,92.66
2022-11-01T05:51:51.875Z,92.18
2022-11-01T05:54:18.255Z,92.23
2022-11-01T05:56:44.609Z,92.13
2022-11-01T05:59:11.003Z,91.84
2022-11-01T06:01:37.588Z,92.04
2022-11-01T06:04:05.451Z,91.87
2022-11-01T06:06:32.703Z,91.93
2022-11-01T06:08:59.863Z,91.68
2022-11-01T06:11:27.594Z,91.77
2022-11-01T06:13:58.404Z,92.22
2022-11-01T06:16:26.301Z,91.40
2022-11-01T06:18:53.734Z,91.29
2022-11-01T06:21:30.146Z,91.26
2022-11-01T06:23:57.019Z,91.21
2022-11-01T06:26:23.468Z,91.04
2022-11-01T06:28:50.023Z,90.96
2022-11-01T06:31:16.449Z,91.04
2022-11-01T06:33:43.134Z,91.04
2022-11-01T06:36:09.581Z,90.69
2022-11-01T06:38:36.199Z,90.86
2022-11-01T06:41:02.970Z,90.61
2022-11-01T06:43:29.357Z,90.58
2022-11-01T06:45:58.719Z,90.50
2022-11-01T06:48:25.080Z,90.46
2022-11-01T06:50:53.715Z,90.30
2022-11-01T06:53:20.345Z,90.18
2022-11-01T06:55:46.695Z,90.15
2022-11-01T06:58:13.079Z,90.20
2022-11-01T07:00:39.483Z,90.17
2022-11-01T07:03:08.067Z,90.16
2022-11-01T07:05:37.383Z,90.12
2022-11-01T07:08:07.414Z,90.16
2022-11-01T07:10:34.027Z,90.06
2022-11-01T07:13:05.387Z,90.34
2022-11-01T07:15:32.335Z,90.05
2022-11-01T07:18:01.584Z,89.95
2022-11-01T07:20:30.439Z,90.22
2022-11-01T07:22:58.322Z,90.12
2022-11-01T07:25:24.977Z,89.87
2022-11-01T07:27:51.341Z,89.56
2022-11-01T07:30:17.851Z,89.42
2022-11-01T07:32:44.346Z,89.01
2022-11-01T07:35:13.018Z,88.92
2022-11-01T07:37:39.546Z,88.91
2022-11-01T07:40:06.567Z,88.72
2022-11-01T07:42:33.000Z,87.87
2022-11-01T07:44:59.339Z,88.21
2022-11-01T07:47:25.775Z,87.94
2022-11-01T07:49:52.878Z,88.58
2022-11-01T07:52:19.330Z,87.52
2022-11-01T07:54:45.677Z,87.27
2022-11-01T07:57:12.010Z,87.01
2022-11-01T07:59:38.373Z,86.02
2022-11-01T08:02:07.882Z,86.51
2022-11-01T08:04:35.095Z,86.52
2022-11-01T08:07:01.609Z,85.49
2022-11-01T08:09:28.089Z,84.65
2022-11-01T08:11:54.421Z,84.61
2022-11-01T08:14:21.006Z,84.25
2022-11-01T08:16:57.626Z,84.56
2022-11-01T08:19:24.057Z,83.53
2022-11-01T08:21:51.028Z,82.55
2022-11-01T08:24:17.915Z,82.92
2022-11-01T08:26:44.367Z,82.13
2022-11-01T08:29:10.870Z,81.88
2022-11-01T08:31:45.284Z,81.07
2022-11-01T08:34:14.544Z,80.08
2022-11-01T08:36:42.427Z,78.67
2022-11-01T08:41:37.418Z,76.80
2022-11-01T08:44:04.120Z,75.97
2022-11-01T08:46:30.493Z,75.77
2022-11-01T08:48:59.154Z,74.81
2022-11-01T08:51:26.182Z,74.62
2022-11-01T08:53:56.808Z,74.33
2022-11-01T08:56:24.767Z,74.17
2022-11-01T08:58:52.772Z,73.36
2022-11-01T09:01:20.075Z,73.00
2022-11-01T09:03:47.082Z,72.78
2022-11-01T09:06:13.815Z,72.55
2022-11-01T09:08:40.297Z,72.32
2022-11-01T09:11:06.785Z,71.50
2022-11-01T09:13:34.472Z,71.10
2022-11-01T09:16:06.108Z,71.19
2022-11-01T09:18:32.964Z,70.24
2022-11-01T09:21:00.028Z,69.86
2022-11-01T09:23:26.974Z,69.24
2022-11-01T09:25:53.832Z,68.88
2022-11-01T09:28:20.287Z,68.22
2022-11-01T09:30:50.183Z,67.97
2022-11-01T09:33:23.723Z,67.78
2022-11-01T09:35:56.712Z,67.71
2022-11-01T09:38:25.173Z,67.12
2022-11-01T09:41:05.564Z,68.11
2022-11-01T09:43:36.995Z,68.43
2022-11-01T09:46:05.800Z,68.01
2022-11-01T09:48:34.271Z,68.01
2022-11-01T09:51:10.770Z,68.66
2022-11-01T09:53:37.175Z,68.54
2022-11-01T09:56:14.085Z,68.54
2022-11-01T09:59:02.137Z,68.02
2022-11-01T10:01:46.711Z,68.72
2022-11-01T10:04:34.150Z,69.29
2022-11-01T10:07:32.539Z,69.46
2022-11-01T10:10:18.814Z,69.62
2022-11-01T10:12:45.226Z,69.60
2022-11-01T10:15:14.285Z,68.48
2022-11-01T10:17:52.967Z,69.04
2022-11-01T10:20:29.347Z,67.92
2022-11-01T10:22:57.545Z,67.99
2022-11-01T10:25:28.512Z,68.38
2022-11-01T10:28:19.987Z,68.22
2022-11-01T10:30:52.605Z,67.98
2022-11-01T10:33:27.618Z,68.17
2022-11-01T10:36:10.137Z,68.06
2022-11-01T10:39:29.883Z,67.64
2022-11-01T10:41:37.126Z,67.47
2022-11-01T10:44:27.925Z,67.86
2022-11-01T10:46:55.851Z,66.95
2022-11-01T10:49:40.538Z,66.20
2022-11-01T10:52:20.375Z,66.17
2022-11-01T10:54:47.994Z,62.98
2022-11-01T10:57:26.686Z,63.82
2022-11-01T10:59:56.861Z,60.72
2022-11-01T11:02:43.144Z,60.78
2022-11-01T11:05:14.029Z,59.20
2022-11-01T11:07:41.539Z,55.85
2022-11-01T11:10:26.714Z,56.06
2022-11-01T11:13:02.311Z,56.02
2022-11-01T11:16:01.581Z,56.09
2022-11-01T11:18:42.125Z,54.96
2022-11-01T11:21:11.907Z,53.89
2022-11-01T11:23:44.114Z,52.44
2022-11-01T11:26:17.572Z,50.80
2022-11-01T11:28:48.939Z,48.98
2022-11-01T11:31:22.997Z,48.96
2022-11-01T11:33:53.743Z,49.10
2022-11-01T11:36:29.236Z,47.54
2022-11-01T11:38:55.887Z,45.97
2022-11-01T11:41:41.840Z,45.82
2022-11-01T11:44:45.906Z,45.31
2022-11-01T11:47:28.192Z,44.85
2022-11-01T11:49:57.987Z,45.26
2022-11-01T11:52:37.945Z,46.77
2022-11-01T11:55:06.132Z,45.41
2022-11-01T11:57:33.355Z,45.54
2022-11-01T12:00:03.011Z,44.44
2022-11-01T12:02:37.358Z,44.53
2022-11-01T12:05:09.485Z,44.36
2022-11-01T12:07:45.254Z,43.52
2022-11-01T12:10:28.676Z,43.21
2022-11-01T12:12:56.772Z,44.85
2022-11-01T12:15:38.544Z,42.93
2022-11-01T12:18:15.881Z,43.08
2022-11-01T12:20:43.853Z,42.61
2022-11-01T12:23:24.137Z,42.68
2022-11-01T12:25:51.647Z,42.68
2022-11-01T12:28:29.568Z,43.14
2022-11-01T12:31:03.084Z,43.23
2022-11-01T12:33:36.108Z,42.75
2022-11-01T12:36:02.966Z,42.72
2022-11-01T12:38:32.423Z,42.35
2022-11-01T12:41:13.748Z,43.05
2022-11-01T12:43:53.159Z,43.14
2022-11-01T12:46:28.798Z,42.49
2022-11-01T12:49:03.215Z,41.48
2022-11-01T12:51:37.824Z,42.36
2022-11-01T12:54:27.242Z,42.08
2022-11-01T12:56:55.384Z,42.23
2022-11-01T12:59:29.142Z,41.68
2022-11-01T13:02:09.626Z,40.82
2022-11-01T13:04:42.057Z,41.46
2022-11-01T13:07:23.055Z,41.56
2022-11-01T13:10:07.932Z,41.57
2022-11-01T13:12:48.887Z,41.91
2022-11-01T13:15:25.607Z,41.79
2022-11-01T13:18:23.819Z,42.23
2022-11-01T13:21:08.373Z,41.65
2022-11-01T13:23:53.178Z,41.49
2022-11-01T13:26:29.993Z,42.21
2022-11-01T13:29:17.371Z,41.99
2022-11-01T13:32:04.108Z,43.50
2022-11-01T13:34:52.258Z,42.88
2022-11-01T13:37:32.797Z,43.29
2022-11-01T13:40:21.798Z,43.84
2022-11-01T13:42:59.737Z,44.79
2022-11-01T13:45:29.369Z,44.91
2022-11-01T13:48:11.300Z,45.76
2022-11-01T13:51:15.340Z,46.18
2022-11-01T13:53:52.953Z,46.61
2022-11-01T13:56:32.068Z,47.70
2022-11-01T13:58:58.814Z,46.62
2022-11-01T14:01:29.942Z,46.68
2022-11-01T14:04:14.810Z,47.40
2022-11-01T14:06:43.629Z,46.51
2022-11-01T14:09:28.084Z,46.17
2022-11-01T14:11:57.336Z,46.57
2022-11-01T14:14:29.471Z,46.50
2022-11-01T14:17:21.294Z,46.49
2022-11-01T14:19:49.909Z,46.47
2022-11-01T14:22:22.513Z,46.28
2022-11-01T14:25:00.804Z,46.61
2022-11-01T14:27:35.963Z,46.66
2022-11-01T14:30:14.490Z,46.75
2022-11-01T14:32:43.702Z,46.91
2022-11-01T14:35:13.222Z,47.78
2022-11-01T14:37:44.277Z,48.10
2022-11-01T14:40:19.658Z,48.24
2022-11-01T14:42:48.654Z,48.69
2022-11-01T14:45:39.579Z,49.00
2022-11-01T14:48:16.452Z,49.82
2022-11-01T14:50:52.367Z,49.54
2022-11-01T14:53:19.818Z,49.90
2022-11-01T14:55:46.396Z,49.97
2022-11-01T14:58:18.670Z,50.55
2022-11-01T15:00:46.773Z,50.51
2022-11-01T15:03:14.122Z,50.96
2022-11-01T15:05:58.466Z,51.29
2022-11-01T15:08:40.402Z,51.64
2022-11-01T15:11:07.691Z,52.80
2022-11-01T15:13:39.062Z,52.75
2022-11-01T15:16:19.707Z,53.41
2022-11-01T15:18:53.790Z,53.39
2022-11-01T15:21:25.743Z,54.08
2022-11-01T15:24:00.250Z,54.30
2022-11-01T15:26:32.770Z,54.71
2022-11-01T15:29:04.992Z,54.75
2022-11-01T15:31:34.217Z,55.38
2022-11-01T15:34:19.288Z,55.96
2022-11-01T15:36:45.873Z,55.98
2022-11-01T15:39:19.270Z,56.58
2022-11-01T15:41:46.642Z,56.60
2022-11-01T15:44:32.300Z,57.09
2022-11-01T15:47:01.117Z,57.19
2022-11-01T15:49:40.560Z,57.80
2022-11-01T15:52:21.181Z,58.01
2022-11-01T15:54:54.838Z,58.37
2022-11-01T15:57:37.714Z,58.63
2022-11-01T16:00:07.275Z,58.93
2022-11-01T16:02:40.034Z,59.17
2022-11-01T16:05:08.959Z,59.72
2022-11-01T16:07:35.621Z,59.81
2022-11-01T16:10:05.081Z,59.98
2022-11-01T16:12:35.930Z,60.56
2022-11-01T16:15:19.799Z,60.88
2022-11-01T16:17:46.820Z,61.36
2022-11-01T16:20:36.609Z,61.55
2022-11-01T16:23:14.256Z,62.23
2022-11-01T16:25:40.954Z,62.74
2022-11-01T16:28:10.328Z,63.14
2022-11-01T16:30:51.069Z,63.83
2022-11-01T16:33:27.805Z,64.37
2022-11-01T16:36:03.240Z,64.87
2022-11-01T16:38:32.660Z,65.39
2022-11-01T16:41:01.864Z,65.73
2022-11-01T16:43:31.261Z,65.59
2022-11-01T16:45:58.752Z,66.05
2022-11-01T16:48:34.580Z,66.72
2022-11-01T16:51:02.016Z,66.74
2022-11-01T16:53:30.350Z,67.10
2022-11-01T16:56:30.611Z,67.16
2022-11-01T16:58:57.561Z,66.60
2022-11-01T17:01:34.361Z,66.64
2022-11-01T17:04:02.478Z,66.28
2022-11-01T17:06:28.945Z,66.08
2022-11-01T17:08:55.446Z,65.92
2022-11-01T17:11:22.037Z,65.72
2022-11-01T17:13:48.532Z,65.43
2022-11-01T17:16:27.305Z,65.38
2022-11-01T17:18:57.482Z,65.36
2022-11-01T17:21:25.027Z,64.79
2022-11-01T17:23:52.657Z,64.93
2022-11-01T17:26:19.651Z,64.64
2022-11-01T17:28:51.340Z,64.90
2022-11-01T17:31:18.880Z,64.99
2022-11-01T17:33:45.489Z,65.06
2022-11-01T17:36:16.317Z,65.30
2022-11-01T17:38:44.793Z,64.96
2022-11-01T17:41:19.610Z,64.93
2022-11-01T17:43:45.970Z,64.99
2022-11-01T17:46:20.178Z,65.00
2022-11-01T17:48:46.624Z,64.91
2022-11-01T17:51:13.144Z,65.16
2022-11-01T17:53:41.985Z,65.21
2022-11-01T17:56:08.660Z,65.30
2022-11-01T17:58:35.592Z,65.59
2022-11-01T18:01:02.746Z,65.57
2022-11-01T18:03:29.196Z,65.54
2022-11-01T18:05:58.095Z,65.80
2022-11-01T18:08:26.932Z,65.67
2022-11-01T18:11:26.016Z,65.95
2022-11-01T18:14:26.248Z,65.91
2022-11-01T18:16:58.577Z,65.51
2022-11-01T18:19:58.341Z,65.76
2022-11-01T18:22:55.857Z,66.08
2022-11-01T18:25:37.357Z,65.68
2022-11-01T18:28:15.770Z,65.80
2022-11-01T18:30:47.394Z,65.56
2022-11-01T18:33:37.605Z,65.62
2022-11-01T18:36:58.246Z,65.48
2022-11-01T18:39:30.785Z,65.54
2022-11-01T18:42:00.558Z,65.37
2022-11-01T18:44:27.501Z,65.33
2022-11-01T18:47:06.025Z,65.47
2022-11-01T18:49:32.434Z,65.34
2022-11-01T18:51:59.057Z,65.35
2022-11-01T18:54:30.194Z,65.56
2022-11-01T18:56:58.548Z,65.37
2022-11-01T18:59:32.855Z,65.46
2022-11-01T19:02:03.370Z,65.59
2022-11-01T19:04:31.533Z,65.59
2022-11-01T19:07:10.046Z,65.60
2022-11-01T19:09:38.575Z,65.38
2022-11-01T19:12:25.512Z,65.52
2022-11-01T19:15:16.230Z,65.67
2022-11-01T19:17:43.599Z,64.99
2022-11-01T19:20:30.782Z,65.28
2022-11-01T19:23:03.209Z,65.24
2022-11-01T19:25:35.549Z,65.14
2022-11-01T19:28:11.118Z,65.09
2022-11-01T19:30:38.483Z,64.58
2022-11-01T19:33:18.382Z,64.57
2022-11-01T19:35:44.892Z,64.59
2022-11-01T19:38:15.800Z,64.68
2022-11-01T19:40:42.446Z,64.12
2022-11-01T19:43:13.615Z,64.30
2022-11-01T19:46:00.440Z,64.19
2022-11-01T19:48:29.926Z,63.84
2022-11-01T19:50:56.331Z,63.49
2022-11-01T19:53:32.246Z,63.56
2022-11-01T19:56:07.704Z,63.52
2022-11-01T19:58:45.697Z,63.40
2022-11-01T20:01:21.272Z,63.50
2022-11-01T20:03:55.353Z,63.16
2022-11-01T20:06:30.991Z,63.06
2022-11-01T20:09:13.236Z,63.01
2022-11-01T20:11:39.686Z,62.74
2022-11-01T20:14:06.121Z,62.62
2022-11-01T20:16:32.496Z,62.55
2022-11-01T20:18:59.621Z,62.57
2022-11-01T20:21:26.041Z,62.35
2022-11-01T20:23:52.703Z,62.12
2022-11-01T20:26:19.146Z,62.20
2022-11-01T20:28:45.635Z,62.12
2022-11-01T20:31:12.299Z,62.13
2022-11-01T20:33:38.645Z,62.00
2022-11-01T20:36:10.786Z,61.92
2022-11-01T20:38:38.224Z,62.04
2022-11-01T20:41:04.756Z,62.12
2022-11-01T20:43:31.190Z,62.16
2022-11-01T20:45:57.772Z,62.03
2022-11-01T20:48:25.181Z,61.75
2022-11-01T20:50:52.285Z,61.59
2022-11-01T20:53:18.766Z,61.29
2022-11-01T20:55:45.532Z,61.42
2022-11-01T20:58:14.068Z,61.40
2022-11-01T21:00:40.433Z,61.36
2022-11-01T21:03:16.252Z,61.46
2022-11-01T21:05:44.585Z,61.39
2022-11-01T21:08:16.309Z,61.43
2022-11-01T21:10:43.346Z,61.19
2022-11-01T21:13:27.778Z,61.34
2022-11-01T21:15:56.981Z,61.04
2022-11-01T21:18:39.251Z,61.20
2022-11-01T21:21:27.075Z,61.03
2022-11-01T21:23:53.985Z,60.99
2022-11-01T21:26:28.526Z,61.12
2022-11-01T21:29:01.393Z,61.01
2022-11-01T21:31:33.097Z,61.07
2022-11-01T21:34:14.501Z,60.77
2022-11-01T21:36:42.743Z,60.70
2022-11-01T21:39:17.509Z,60.88
2022-11-01T21:41:46.173Z,60.67
2022-11-01T21:44:18.483Z,60.53
2022-11-01T21:46:54.173Z,60.38
2022-11-01T21:49:27.933Z,60.00
2022-11-01T21:51:56.440Z,60.06
2022-11-01T21:54:23.095Z,59.90
2022-11-01T21:56:49.678Z,59.89
2022-11-01T21:59:16.992Z,59.86
2022-11-01T22:01:45.270Z,59.66
2022-11-01T22:04:15.613Z,59.42
2022-11-01T22:06:42.048Z,59.28
2022-11-01T22:09:09.453Z,59.44
2022-11-01T22:11:36.752Z,59.22
2022-11-01T22:14:03.936Z,59.34
2022-11-01T22:16:30.328Z,59.11
2022-11-01T22:18:59.324Z,58.94
2022-11-01T22:21:26.017Z,59.13
2022-11-01T22:23:52.451Z,59.23
2022-11-01T22:26:18.958Z,59.07
2022-11-01T22:28:45.388Z,59.07
2022-11-01T22:31:15.314Z,59.40
2022-11-01T22:33:42.329Z,59.35
2022-11-01T22:36:14.102Z,59.33
2022-11-01T22:38:43.158Z,59.33
2022-11-01T22:41:22.461Z,59.54
2022-11-01T22:43:50.133Z,59.43
2022-11-01T22:46:28.479Z,59.64
2022-11-01T22:49:09.710Z,59.55
2022-11-01T22:51:42.881Z,59.35
2022-11-01T22:54:25.338Z,59.58
2022-11-01T22:57:01.188Z,59.53
2022-11-01T22:59:34.027Z,59.88
2022-11-01T23:02:21.944Z,59.66
2022-11-01T23:04:49.322Z,59.58
2022-11-01T23:07:39.659Z,59.56
2022-11-01T23:10:19.546Z,59.42
2022-11-01T23:13:04.476Z,59.35
2022-11-01T23:15:33.586Z,59.70
2022-11-01T23:18:15.178Z,60.01
2022-11-01T23:20:41.910Z,59.80
2022-11-01T23:23:18.639Z,59.94
2022-11-01T23:25:45.327Z,59.84
2022-11-01T23:28:13.022Z,60.10
2022-11-01T23:30:44.522Z,60.02
2022-11-01T23:33:13.675Z,60.09
2022-11-01T23:35:42.231Z,60.31
2022-11-01T23:38:19.889Z,60.24
2022-11-01T23:40:46.784Z,60.25
2022-11-01T23:43:37.384Z,60.45
2022-11-01T23:46:04.723Z,60.37
2022-11-01T23:48:31.142Z,60.55
2022-11-01T23:50:58.288Z,60.26
2022-11-01T23:53:38.105Z,60.16
2022-11-01T23:56:07.908Z,60.48
2022-11-01T23:58:35.919Z,60.37
